createdAt,value
2022-10-02T00:00:22.622Z,99832.84
2022-10-02T00:00:54.187Z,99829.88
2022-10-02T00:01:58.259Z,99833.69
2022-10-02T00:02:37.320Z,99835.22
2022-10-02T00:03:18.672Z,99833.81
2022-10-02T00:03:50.350Z,99835.66
2022-10-02T00:04:27.130Z,99836.88
2022-10-02T00:05:03.104Z,99834.53
2022-10-02T00:05:38.427Z,99835.22
2022-10-02T00:06:11.793Z,99834.94
2022-10-02T00:06:45.540Z,99834.06
2022-10-02T00:07:17.134Z,99832.97
2022-10-02T00:08:00.844Z,99833.78
2022-10-02T00:08:33.682Z,99832.97
2022-10-02T00:09:05.225Z,99828.34
2022-10-02T00:09:45.011Z,99831.16
2022-10-02T00:10:16.542Z,99837.78
2022-10-02T00:10:50.967Z,99825.69
2022-10-02T00:11:23.142Z,99830.88
2022-10-02T00:11:55.969Z,99841.97
2022-10-02T00:12:27.697Z,99833.28
2022-10-02T00:13:00.833Z,99831.59
2022-10-02T00:13:37.869Z,99837.22
2022-10-02T00:14:09.723Z,99832.16
2022-10-02T00:14:41.400Z,99831.16
2022-10-02T00:15:13.904Z,99832.47
2022-10-02T00:15:45.414Z,99836.09
2022-10-02T00:16:33.784Z,99833.44
2022-10-02T00:17:05.579Z,99831.00
2022-10-02T00:17:38.231Z,99835.38
2022-10-02T00:18:11.646Z,99842.22
2022-10-02T00:18:43.120Z,99839.25
2022-10-02T00:19:18.220Z,99839.97
2022-10-02T00:19:55.718Z,99840.66
2022-10-02T00:20:29.757Z,99839.69
2022-10-02T00:21:06.128Z,99830.53
2022-10-02T00:21:43.346Z,99829.69
2022-10-02T00:22:18.778Z,99839.97
2022-10-02T00:22:53.183Z,99842.78
2022-10-02T00:23:30.282Z,99836.59
2022-10-02T00:24:02.139Z,99842.94
2022-10-02T00:24:42.857Z,99838.19
2022-10-02T00:25:23.070Z,99837.22
2022-10-02T00:25:57.292Z,99844.78
2022-10-02T00:26:31.496Z,99843.66
2022-10-02T00:27:05.746Z,99841.16
2022-10-02T00:27:45.916Z,99833.81
2022-10-02T00:28:23.129Z,99845.06
2022-10-02T00:29:00.682Z,99835.22
2022-10-02T00:29:37.825Z,99838.59
2022-10-02T00:30:12.932Z,99837.50
2022-10-02T00:31:02.900Z,99841.09
2022-10-02T00:31:34.353Z,99840.81
2022-10-02T00:32:12.596Z,99838.00
2022-10-02T00:32:50.650Z,99841.66
2022-10-02T00:33:28.945Z,99837.31
2022-10-02T00:34:03.942Z,99836.31
2022-10-02T00:34:44.317Z,99841.66
2022-10-02T00:35:29.182Z,99843.47
2022-10-02T00:36:09.238Z,99853.56
2022-10-02T00:36:59.467Z,99842.22
2022-10-02T00:37:33.670Z,99838.28
2022-10-02T00:38:25.368Z,99842.66
2022-10-02T00:39:02.752Z,99844.31
2022-10-02T00:39:40.086Z,99834.34
2022-10-02T00:40:29.615Z,99848.66
2022-10-02T00:41:04.710Z,99842.78
2022-10-02T00:41:42.360Z,99837.16
2022-10-02T00:42:13.830Z,99852.31
2022-10-02T00:42:45.258Z,99841.41
2022-10-02T00:43:34.973Z,99843.91
2022-10-02T00:44:13.949Z,99846.16
2022-10-02T00:44:45.440Z,99850.38
2022-10-02T00:45:23.993Z,99846.97
2022-10-02T00:45:55.534Z,99846.97
2022-10-02T00:46:32.981Z,99850.38
2022-10-02T00:47:14.457Z,99851.22
2022-10-02T00:47:49.029Z,99853.75
2022-10-02T00:48:42.135Z,99854.31
2022-10-02T00:49:19.545Z,99847.56
2022-10-02T00:49:53.798Z,99853.63
2022-10-02T00:50:25.293Z,99850.09
2022-10-02T00:51:00.602Z,99851.22
2022-10-02T00:51:38.030Z,99850.94
2022-10-02T00:52:28.604Z,99846.44
2022-10-02T00:53:08.340Z,99855.13
2022-10-02T00:53:54.637Z,99852.59
2022-10-02T00:54:43.483Z,99853.19
2022-10-02T00:55:15.016Z,99853.31
2022-10-02T00:55:55.287Z,99849.78
2022-10-02T00:56:29.442Z,99860.31
2022-10-02T00:57:19.319Z,99853.31
2022-10-02T00:58:14.330Z,99854.00
2022-10-02T00:58:54.607Z,99843.91
2022-10-02T00:59:31.575Z,99855.41
2022-10-02T01:00:05.878Z,99848.97
2022-10-02T01:00:37.505Z,99855.13
2022-10-02T01:01:16.452Z,99849.66
2022-10-02T01:02:02.002Z,99849.94
2022-10-02T01:02:36.233Z,99838.28
2022-10-02T01:03:28.400Z,99853.47
2022-10-02T01:03:59.923Z,99850.50
2022-10-02T01:04:34.767Z,99846.28
2022-10-02T01:05:07.476Z,99848.97
2022-10-02T01:05:39.007Z,99850.94
2022-10-02T01:06:10.553Z,99851.91
2022-10-02T01:06:42.029Z,99842.94
2022-10-02T01:07:13.588Z,99849.94
2022-10-02T01:07:45.301Z,99853.63
2022-10-02T01:08:16.947Z,99852.91
2022-10-02T01:08:48.427Z,99848.56
2022-10-02T01:09:19.943Z,99849.69
2022-10-02T01:09:51.398Z,99858.22
2022-10-02T01:10:23.319Z,99856.28
2022-10-02T01:10:54.967Z,99858.22
2022-10-02T01:11:26.438Z,99852.59
2022-10-02T01:11:58.179Z,99858.81
2022-10-02T01:12:29.703Z,99859.94
2022-10-02T01:13:01.256Z,99856.56
2022-10-02T01:13:32.825Z,99861.34
2022-10-02T01:14:04.315Z,99863.28
2022-10-02T01:14:36.300Z,99861.63
2022-10-02T01:15:14.760Z,99866.66
2022-10-02T01:15:52.459Z,99857.69
2022-10-02T01:16:24.014Z,99864.56
2022-10-02T01:16:55.517Z,99863.56
2022-10-02T01:17:28.270Z,99862.75
2022-10-02T01:17:59.788Z,99858.09
2022-10-02T01:18:31.314Z,99855.41
2022-10-02T01:19:02.769Z,99856.28
2022-10-02T01:19:40.401Z,99863.56
2022-10-02T01:20:15.171Z,99870.88
2022-10-02T01:20:47.312Z,99865.84
2022-10-02T01:21:21.401Z,99863.88
2022-10-02T01:21:53.513Z,99862.47
2022-10-02T01:23:11.606Z,99862.88
2022-10-02T01:23:48.342Z,99855.75
2022-10-02T01:24:21.677Z,99858.22
2022-10-02T01:24:53.386Z,99862.06
2022-10-02T01:25:24.670Z,99860.06
2022-10-02T01:25:56.385Z,99868.91
2022-10-02T01:26:27.792Z,99855.28
2022-10-02T01:26:59.144Z,99851.91
2022-10-02T01:27:30.602Z,99862.88
2022-10-02T01:28:02.087Z,99860.22
2022-10-02T01:28:33.459Z,99865.69
2022-10-02T01:29:04.822Z,99857.25
2022-10-02T01:29:36.221Z,99857.41
2022-10-02T01:30:08.685Z,99856.72
2022-10-02T01:30:40.930Z,99861.22
2022-10-02T01:31:12.288Z,99854.88
2022-10-02T01:31:43.731Z,99857.53
2022-10-02T01:32:15.213Z,99859.53
2022-10-02T01:32:50.523Z,99855.75
2022-10-02T01:33:21.977Z,99861.91
2022-10-02T01:33:53.405Z,99863.56
2022-10-02T01:34:24.779Z,99861.38
2022-10-02T01:34:56.212Z,99859.38
2022-10-02T01:35:31.243Z,99864.56
2022-10-02T01:36:02.636Z,99862.59
2022-10-02T01:36:34.338Z,99853.47
2022-10-02T01:37:06.279Z,99859.94
2022-10-02T01:37:38.309Z,99861.63
2022-10-02T01:38:10.908Z,99860.47
2022-10-02T01:38:42.358Z,99864.97
2022-10-02T01:39:13.707Z,99866.09
2022-10-02T01:39:45.071Z,99863.41
2022-10-02T01:40:22.757Z,99857.53
2022-10-02T01:40:54.149Z,99863.75
2022-10-02T01:41:25.517Z,99870.06
2022-10-02T01:41:56.948Z,99870.88
2022-10-02T01:42:28.350Z,99858.41
2022-10-02T01:43:03.603Z,99865.56
2022-10-02T01:43:35.434Z,99867.78
2022-10-02T01:44:06.862Z,99869.78
2022-10-02T01:44:38.263Z,99863.75
2022-10-02T01:45:10.006Z,99862.59
2022-10-02T01:45:51.729Z,99863.28
2022-10-02T01:46:23.131Z,99872.28
2022-10-02T01:47:10.751Z,99863.28
2022-10-02T01:47:50.740Z,99860.63
2022-10-02T01:48:40.953Z,99866.81
2022-10-02T01:49:17.291Z,99866.66
2022-10-02T01:49:55.818Z,99861.34
2022-10-02T01:50:32.772Z,99868.63
2022-10-02T01:51:06.750Z,99863.13
2022-10-02T01:51:56.602Z,99875.34
2022-10-02T01:52:34.387Z,99864.97
2022-10-02T01:53:05.985Z,99864.81
2022-10-02T01:53:40.198Z,99869.03
2022-10-02T01:54:17.405Z,99874.53
2022-10-02T01:54:51.937Z,99866.81
2022-10-02T01:55:38.305Z,99862.59
2022-10-02T01:56:12.261Z,99865.25
2022-10-02T01:57:02.247Z,99865.13
2022-10-02T01:57:36.623Z,99865.81
2022-10-02T01:58:07.978Z,99869.47
2022-10-02T01:58:43.315Z,99865.25
2022-10-02T01:59:34.913Z,99862.44
2022-10-02T02:00:07.132Z,99862.75
2022-10-02T02:00:42.438Z,99863.03
2022-10-02T02:01:25.941Z,99861.50
2022-10-02T02:02:20.150Z,99863.56
2022-10-02T02:02:51.537Z,99860.06
2022-10-02T02:03:43.141Z,99861.06
2022-10-02T02:04:43.495Z,99863.88
2022-10-02T02:05:17.712Z,99860.34
2022-10-02T02:05:54.843Z,99855.88
2022-10-02T02:06:55.591Z,99860.91
2022-10-02T02:07:38.852Z,99863.88
2022-10-02T02:08:19.743Z,99855.47
2022-10-02T02:09:06.008Z,99856.84
2022-10-02T02:09:45.646Z,99859.25
2022-10-02T02:10:18.574Z,99854.88
2022-10-02T02:10:52.831Z,99856.56
2022-10-02T02:11:24.192Z,99859.94
2022-10-02T02:11:58.297Z,99856.56
2022-10-02T02:12:29.667Z,99857.25
2022-10-02T02:13:05.937Z,99856.44
2022-10-02T02:13:55.716Z,99858.81
2022-10-02T02:14:30.426Z,99857.94
2022-10-02T02:15:03.412Z,99853.06
2022-10-02T02:15:36.832Z,99852.22
2022-10-02T02:16:10.202Z,99856.56
2022-10-02T02:16:42.803Z,99857.41
2022-10-02T02:17:20.563Z,99861.06
2022-10-02T02:17:58.357Z,99850.94
2022-10-02T02:18:48.198Z,99850.41
2022-10-02T02:19:33.724Z,99854.59
2022-10-02T02:20:06.263Z,99848.97
2022-10-02T02:20:39.055Z,99851.63
2022-10-02T02:21:12.918Z,99850.09
2022-10-02T02:21:56.280Z,99847.28
2022-10-02T02:22:30.579Z,99843.91
2022-10-02T02:23:06.452Z,99849.41
2022-10-02T02:23:37.923Z,99856.44
2022-10-02T02:24:10.247Z,99851.22
2022-10-02T02:24:43.468Z,99853.06
2022-10-02T02:25:19.405Z,99849.84
2022-10-02T02:25:51.225Z,99843.53
2022-10-02T02:26:22.650Z,99852.91
2022-10-02T02:26:55.276Z,99853.06
2022-10-02T02:27:27.520Z,99852.22
2022-10-02T02:28:00.068Z,99853.06
2022-10-02T02:28:31.539Z,99850.41
2022-10-02T02:29:04.723Z,99855.88
2022-10-02T02:29:36.389Z,99854.88
2022-10-02T02:30:08.368Z,99848.41
2022-10-02T02:30:40.788Z,99856.28
2022-10-02T02:31:12.547Z,99854.59
2022-10-02T02:31:46.006Z,99855.13
2022-10-02T02:32:18.238Z,99848.97
2022-10-02T02:33:09.875Z,99860.47
2022-10-02T02:33:42.875Z,99852.91
2022-10-02T02:34:15.237Z,99849.53
2022-10-02T02:34:48.151Z,99858.22
2022-10-02T02:35:24.470Z,99853.63
2022-10-02T02:35:56.530Z,99863.13
2022-10-02T02:36:31.415Z,99857.94
2022-10-02T02:37:04.783Z,99864.28
2022-10-02T02:37:36.285Z,99857.50
2022-10-02T02:38:09.435Z,99858.50
2022-10-02T02:38:42.318Z,99848.97
2022-10-02T02:39:18.369Z,99854.59
2022-10-02T02:39:51.199Z,99863.41
2022-10-02T02:40:25.885Z,99863.28
2022-10-02T02:40:57.639Z,99864.00
2022-10-02T02:41:30.713Z,99861.91
2022-10-02T02:42:02.514Z,99869.22
2022-10-02T02:42:35.740Z,99868.91
2022-10-02T02:43:15.003Z,99864.28
2022-10-02T02:43:47.186Z,99865.13
2022-10-02T02:44:25.712Z,99862.75
2022-10-02T02:45:17.456Z,99860.75
2022-10-02T02:45:52.857Z,99865.13
2022-10-02T02:46:25.661Z,99861.47
2022-10-02T02:47:01.867Z,99861.63
2022-10-02T02:47:35.599Z,99864.97
2022-10-02T02:48:39.190Z,99872.16
2022-10-02T02:49:10.638Z,99860.75
2022-10-02T02:49:47.692Z,99861.34
2022-10-02T02:50:23.022Z,99864.97
2022-10-02T02:50:55.835Z,99863.56
2022-10-02T02:51:28.392Z,99866.25
2022-10-02T02:51:59.839Z,99860.75
2022-10-02T02:52:32.894Z,99868.91
2022-10-02T02:53:12.972Z,99863.56
2022-10-02T02:53:46.390Z,99865.41
2022-10-02T02:54:19.718Z,99859.94
2022-10-02T02:54:53.162Z,99867.94
2022-10-02T02:55:29.148Z,99859.94
2022-10-02T02:56:04.496Z,99866.56
2022-10-02T02:56:36.169Z,99863.56
2022-10-02T02:57:07.841Z,99867.53
2022-10-02T02:57:41.558Z,99873.97
2022-10-02T02:58:20.592Z,99872.44
2022-10-02T02:58:54.056Z,99870.50
2022-10-02T02:59:26.262Z,99860.22
2022-10-02T02:59:57.686Z,99871.56
2022-10-02T03:00:29.112Z,99868.22
2022-10-02T03:01:00.641Z,99863.41
2022-10-02T03:01:32.176Z,99866.25
2022-10-02T03:02:03.805Z,99875.66
2022-10-02T03:02:35.350Z,99872.97
2022-10-02T03:03:06.796Z,99869.47
2022-10-02T03:03:38.296Z,99869.78
2022-10-02T03:04:11.057Z,99869.63
2022-10-02T03:04:42.411Z,99870.06
2022-10-02T03:05:14.254Z,99870.75
2022-10-02T03:05:47.585Z,99871.56
2022-10-02T03:06:18.981Z,99866.69
2022-10-02T03:06:51.486Z,99865.56
2022-10-02T03:07:22.997Z,99868.75
2022-10-02T03:07:56.221Z,99870.59
2022-10-02T03:08:28.160Z,99866.94
2022-10-02T03:08:59.610Z,99860.06
2022-10-02T03:09:31.032Z,99864.97
2022-10-02T03:10:15.122Z,99861.63
2022-10-02T03:10:49.225Z,99874.81
2022-10-02T03:11:23.401Z,99866.94
2022-10-02T03:12:00.866Z,99871.28
2022-10-02T03:12:35.955Z,99878.31
2022-10-02T03:13:39.801Z,99873.94
2022-10-02T03:14:23.262Z,99878.31
2022-10-02T03:15:03.698Z,99867.78
2022-10-02T03:15:41.066Z,99864.97
2022-10-02T03:16:22.908Z,99867.94
2022-10-02T03:16:57.134Z,99868.91
2022-10-02T03:18:00.627Z,99864.44
2022-10-02T03:18:35.632Z,99862.06
2022-10-02T03:19:12.854Z,99861.75
2022-10-02T03:19:51.446Z,99860.63
2022-10-02T03:20:28.764Z,99857.25
2022-10-02T03:21:02.588Z,99858.50
2022-10-02T03:21:35.668Z,99857.94
2022-10-02T03:22:10.051Z,99856.13
2022-10-02T03:22:59.841Z,99857.41
2022-10-02T03:23:44.480Z,99849.25
2022-10-02T03:24:17.739Z,99868.50
2022-10-02T03:24:52.774Z,99859.38
2022-10-02T03:25:25.093Z,99852.22
2022-10-02T03:26:03.480Z,99854.72
2022-10-02T03:26:36.937Z,99856.28
2022-10-02T03:27:09.378Z,99855.41
2022-10-02T03:28:10.252Z,99849.25
2022-10-02T03:28:55.449Z,99858.09
2022-10-02T03:29:47.352Z,99853.75
2022-10-02T03:30:18.875Z,99853.75
2022-10-02T03:30:50.259Z,99865.13
2022-10-02T03:31:21.800Z,99858.09
2022-10-02T03:31:53.300Z,99861.75
2022-10-02T03:32:24.843Z,99862.59
2022-10-02T03:32:56.253Z,99866.09
2022-10-02T03:33:27.656Z,99862.44
2022-10-02T03:33:59.278Z,99862.31
2022-10-02T03:34:31.904Z,99859.94
2022-10-02T03:35:04.066Z,99864.13
2022-10-02T03:35:35.495Z,99856.00
2022-10-02T03:36:06.931Z,99858.81
2022-10-02T03:36:38.775Z,99858.66
2022-10-02T03:37:10.587Z,99861.19
2022-10-02T03:37:42.447Z,99869.47
2022-10-02T03:38:13.788Z,99857.69
2022-10-02T03:38:50.069Z,99868.22
2022-10-02T03:39:28.472Z,99863.56
2022-10-02T03:40:02.751Z,99862.75
2022-10-02T03:40:34.195Z,99865.41
2022-10-02T03:41:05.717Z,99872.44
2022-10-02T03:41:37.150Z,99861.06
2022-10-02T03:42:09.249Z,99866.09
2022-10-02T03:42:40.652Z,99865.56
2022-10-02T03:43:18.097Z,99869.91
2022-10-02T03:43:49.488Z,99866.09
2022-10-02T03:44:21.023Z,99865.81
2022-10-02T03:44:52.417Z,99865.25
2022-10-02T03:45:49.554Z,99863.03
2022-10-02T03:46:15.845Z,99865.25
2022-10-02T03:46:47.231Z,99859.78
2022-10-02T03:47:18.687Z,99863.00
2022-10-02T03:47:50.127Z,99860.31
2022-10-02T03:48:21.537Z,99851.47
2022-10-02T03:48:52.976Z,99861.91
2022-10-02T03:49:24.410Z,99858.81
2022-10-02T03:49:55.804Z,99861.63
2022-10-02T03:50:27.269Z,99865.56
2022-10-02T03:50:58.714Z,99867.53
2022-10-02T03:51:30.628Z,99856.56
2022-10-02T03:52:02.172Z,99861.75
2022-10-02T03:52:33.595Z,99862.44
2022-10-02T03:53:15.099Z,99859.63
2022-10-02T03:53:46.580Z,99866.66
2022-10-02T03:54:18.867Z,99863.00
2022-10-02T03:54:56.955Z,99866.66
2022-10-02T03:55:30.363Z,99857.13
2022-10-02T03:56:03.545Z,99854.59
2022-10-02T03:56:44.178Z,99854.31
2022-10-02T03:57:18.190Z,99861.34
2022-10-02T03:57:49.567Z,99854.31
2022-10-02T03:58:21.097Z,99856.97
2022-10-02T03:58:52.793Z,99854.97
2022-10-02T03:59:33.128Z,99854.16
2022-10-02T04:00:18.012Z,99854.00
2022-10-02T04:00:52.358Z,99850.66
2022-10-02T04:01:25.160Z,99856.69
2022-10-02T04:01:56.671Z,99856.69
2022-10-02T04:02:37.091Z,99851.47
2022-10-02T04:03:12.888Z,99860.31
2022-10-02T04:03:49.121Z,99853.19
2022-10-02T04:04:24.218Z,99857.38
2022-10-02T04:05:09.708Z,99852.03
2022-10-02T04:05:51.799Z,99856.00
2022-10-02T04:06:36.114Z,99851.78
2022-10-02T04:07:07.858Z,99855.41
2022-10-02T04:07:40.157Z,99849.78
2022-10-02T04:08:15.397Z,99852.59
2022-10-02T04:09:06.848Z,99849.25
2022-10-02T04:09:46.448Z,99850.22
2022-10-02T04:10:17.847Z,99853.31
2022-10-02T04:10:50.921Z,99850.94
2022-10-02T04:11:31.177Z,99860.47
2022-10-02T04:12:08.350Z,99864.28
2022-10-02T04:12:41.563Z,99855.28
2022-10-02T04:13:31.732Z,99858.66
2022-10-02T04:14:07.554Z,99855.13
2022-10-02T04:14:44.893Z,99856.81
2022-10-02T04:15:25.555Z,99859.34
2022-10-02T04:16:08.457Z,99854.31
2022-10-02T04:16:40.922Z,99857.78
2022-10-02T04:17:13.113Z,99860.63
2022-10-02T04:17:47.832Z,99852.47
2022-10-02T04:18:29.465Z,99858.94
2022-10-02T04:19:00.782Z,99859.94
2022-10-02T04:19:35.210Z,99856.00
2022-10-02T04:20:07.782Z,99861.47
2022-10-02T04:20:43.851Z,99853.63
2022-10-02T04:21:21.004Z,99852.47
2022-10-02T04:21:52.326Z,99862.75
2022-10-02T04:22:23.727Z,99860.91
2022-10-02T04:23:00.727Z,99856.56
2022-10-02T04:23:39.579Z,99850.41
2022-10-02T04:24:10.997Z,99855.75
2022-10-02T04:24:45.253Z,99856.13
2022-10-02T04:25:17.988Z,99858.94
2022-10-02T04:25:50.848Z,99861.47
2022-10-02T04:26:24.507Z,99856.97
2022-10-02T04:26:55.935Z,99859.63
2022-10-02T04:27:43.906Z,99858.94
2022-10-02T04:28:15.778Z,99850.66
2022-10-02T04:28:49.105Z,99863.00
2022-10-02T04:29:21.857Z,99856.28
2022-10-02T04:29:57.648Z,99857.13
2022-10-02T04:30:29.080Z,99857.94
2022-10-02T04:31:00.592Z,99857.66
2022-10-02T04:31:32.092Z,99856.81
2022-10-02T04:32:14.273Z,99856.00
2022-10-02T04:32:45.746Z,99856.69
2022-10-02T04:33:18.026Z,99854.00
2022-10-02T04:33:49.355Z,99854.00
2022-10-02T04:34:20.728Z,99855.84
2022-10-02T04:34:52.280Z,99858.81
2022-10-02T04:35:29.684Z,99859.78
2022-10-02T04:36:01.118Z,99862.00
2022-10-02T04:36:37.353Z,99861.34
2022-10-02T04:37:27.635Z,99859.34
2022-10-02T04:38:07.225Z,99855.13
2022-10-02T04:38:38.608Z,99852.59
2022-10-02T04:39:15.941Z,99858.66
2022-10-02T04:39:59.325Z,99852.59
2022-10-02T04:40:37.550Z,99856.97
2022-10-02T04:41:24.033Z,99856.28
2022-10-02T04:42:01.226Z,99850.09
2022-10-02T04:42:41.511Z,99850.22
2022-10-02T04:43:31.777Z,99859.63
2022-10-02T04:44:10.738Z,99849.78
2022-10-02T04:44:52.075Z,99859.63
2022-10-02T04:45:32.820Z,99859.34
2022-10-02T04:46:10.279Z,99865.81
2022-10-02T04:46:44.437Z,99863.28
2022-10-02T04:47:24.652Z,99869.34
2022-10-02T04:48:15.037Z,99870.59
2022-10-02T04:48:46.420Z,99873.66
2022-10-02T04:49:36.754Z,99861.47
2022-10-02T04:50:31.139Z,99868.63
2022-10-02T04:51:06.483Z,99870.31
2022-10-02T04:51:47.010Z,99872.00
2022-10-02T04:52:27.587Z,99865.81
2022-10-02T04:53:17.370Z,99867.78
2022-10-02T04:54:02.445Z,99869.63
2022-10-02T04:54:52.126Z,99870.31
2022-10-02T04:55:41.809Z,99872.97
2022-10-02T04:56:19.184Z,99870.16
2022-10-02T04:57:09.152Z,99880.97
2022-10-02T04:57:55.768Z,99876.63
2022-10-02T04:58:42.450Z,99872.00
2022-10-02T04:59:45.968Z,99871.00
2022-10-02T05:00:20.696Z,99873.66
2022-10-02T05:00:58.781Z,99872.00
2022-10-02T05:01:49.717Z,99875.94
2022-10-02T05:02:24.028Z,99873.81
2022-10-02T05:03:13.396Z,99881.81
2022-10-02T05:04:04.316Z,99876.22
2022-10-02T05:04:38.567Z,99883.78
2022-10-02T05:05:09.921Z,99870.31
2022-10-02T05:06:00.101Z,99872.28
2022-10-02T05:06:36.018Z,99866.94
2022-10-02T05:07:10.693Z,99872.28
2022-10-02T05:08:00.112Z,99863.28
2022-10-02T05:08:34.220Z,99870.59
2022-10-02T05:09:28.278Z,99869.78
2022-10-02T05:10:15.235Z,99867.63
2022-10-02T05:10:49.437Z,99866.41
2022-10-02T05:11:30.015Z,99859.94
2022-10-02T05:12:07.264Z,99864.72
2022-10-02T05:12:44.611Z,99855.41
2022-10-02T05:13:25.021Z,99865.25
2022-10-02T05:14:05.722Z,99861.06
2022-10-02T05:14:47.241Z,99861.38
2022-10-02T05:15:21.703Z,99861.06
2022-10-02T05:16:11.578Z,99859.25
2022-10-02T05:16:50.127Z,99871.75
2022-10-02T05:17:39.965Z,99860.50
2022-10-02T05:18:18.130Z,99862.75
2022-10-02T05:19:08.294Z,99866.94
2022-10-02T05:19:39.641Z,99856.28
2022-10-02T05:20:10.996Z,99858.94
2022-10-02T05:20:54.542Z,99854.31
2022-10-02T05:21:30.041Z,99854.31
2022-10-02T05:22:10.711Z,99858.56
2022-10-02T05:23:00.507Z,99855.75
2022-10-02T05:23:31.918Z,99867.25
2022-10-02T05:24:03.370Z,99862.88
2022-10-02T05:24:49.823Z,99864.72
2022-10-02T05:25:40.029Z,99869.50
2022-10-02T05:26:15.977Z,99861.38
2022-10-02T05:26:50.687Z,99864.88
2022-10-02T05:27:31.145Z,99861.06
2022-10-02T05:28:24.971Z,99860.22
2022-10-02T05:29:02.058Z,99869.63
2022-10-02T05:29:45.361Z,99866.56
2022-10-02T05:30:17.345Z,99877.91
2022-10-02T05:30:54.054Z,99872.56
2022-10-02T05:31:28.316Z,99878.50
2022-10-02T05:32:02.808Z,99879.19
2022-10-02T05:32:39.955Z,99875.13
2022-10-02T05:33:23.677Z,99873.44
2022-10-02T05:34:13.244Z,99877.50
2022-10-02T05:34:47.533Z,99884.38
2022-10-02T05:35:18.984Z,99882.25
2022-10-02T05:36:03.590Z,99880.44
2022-10-02T05:36:44.020Z,99879.28
2022-10-02T05:37:18.113Z,99885.78
2022-10-02T05:38:03.651Z,99881.56
2022-10-02T05:38:56.676Z,99883.81
2022-10-02T05:39:28.813Z,99882.00
2022-10-02T05:40:03.797Z,99890.84
2022-10-02T05:40:45.272Z,99896.88
2022-10-02T05:41:21.898Z,99889.41
2022-10-02T05:41:56.174Z,99893.63
2022-10-02T05:42:31.174Z,99897.28
2022-10-02T05:43:02.554Z,99903.44
2022-10-02T05:43:47.826Z,99900.78
2022-10-02T05:44:35.957Z,99894.91
2022-10-02T05:45:24.474Z,99904.31
2022-10-02T05:45:56.812Z,99903.31
2022-10-02T05:46:32.726Z,99904.31
2022-10-02T05:47:10.404Z,99896.16
2022-10-02T05:47:42.737Z,99902.19
2022-10-02T05:48:24.190Z,99909.66
2022-10-02T05:48:57.388Z,99899.81
2022-10-02T05:49:35.092Z,99905.28
2022-10-02T05:50:12.386Z,99908.63
2022-10-02T05:50:43.829Z,99905.13
2022-10-02T05:51:16.708Z,99901.50
2022-10-02T05:51:53.343Z,99904.59
2022-10-02T05:52:57.090Z,99908.09
2022-10-02T05:53:38.679Z,99902.63
2022-10-02T05:54:14.742Z,99901.78
2022-10-02T05:55:15.413Z,99900.09
2022-10-02T05:55:51.712Z,99897.41
2022-10-02T05:56:24.547Z,99895.75
2022-10-02T05:57:06.908Z,99891.94
2022-10-02T05:57:39.822Z,99899.25
2022-10-02T05:58:19.672Z,99889.28
2022-10-02T05:58:56.221Z,99897.28
2022-10-02T05:59:50.892Z,99890.25
2022-10-02T06:00:41.558Z,99894.31
2022-10-02T06:01:14.619Z,99888.59
2022-10-02T06:01:46.709Z,99886.75
2022-10-02T06:02:24.314Z,99898.44
2022-10-02T06:03:00.198Z,99892.22
2022-10-02T06:03:36.305Z,99891.09
2022-10-02T06:04:15.267Z,99884.78
2022-10-02T06:04:49.069Z,99883.78
2022-10-02T06:05:30.225Z,99891.50
2022-10-02T06:06:01.720Z,99892.34
2022-10-02T06:06:33.179Z,99889.81
2022-10-02T06:07:06.608Z,99889.41
2022-10-02T06:07:38.233Z,99892.91
2022-10-02T06:08:10.915Z,99896.16
2022-10-02T06:08:48.015Z,99897.00
2022-10-02T06:09:29.726Z,99890.97
2022-10-02T06:10:03.191Z,99893.63
2022-10-02T06:10:36.103Z,99895.28
2022-10-02T06:11:11.984Z,99901.94
2022-10-02T06:12:03.682Z,99897.56
2022-10-02T06:12:35.804Z,99900.91
2022-10-02T06:13:45.813Z,99902.31
2022-10-02T06:14:20.279Z,99902.88
2022-10-02T06:15:00.291Z,99908.78
2022-10-02T06:15:39.983Z,99906.13
2022-10-02T06:16:18.213Z,99911.78
2022-10-02T06:16:49.669Z,99920.31
2022-10-02T06:17:21.159Z,99907.94
2022-10-02T06:18:00.050Z,99908.63
2022-10-02T06:18:31.690Z,99906.13
2022-10-02T06:19:04.499Z,99900.09
2022-10-02T06:19:50.468Z,99905.13
2022-10-02T06:20:24.579Z,99899.94
2022-10-02T06:20:56.595Z,99909.66
2022-10-02T06:21:27.942Z,99915.81
2022-10-02T06:22:00.494Z,99912.31
2022-10-02T06:22:33.650Z,99919.03
2022-10-02T06:23:10.786Z,99921.16
2022-10-02T06:23:43.453Z,99923.66
2022-10-02T06:24:25.514Z,99924.66
2022-10-02T06:24:58.287Z,99924.34
2022-10-02T06:25:37.286Z,99928.19
2022-10-02T06:26:13.059Z,99921.69
2022-10-02T06:26:55.991Z,99932.38
2022-10-02T06:27:35.329Z,99927.31
2022-10-02T06:28:11.656Z,99930.69
2022-10-02T06:28:44.689Z,99927.88
2022-10-02T06:29:26.264Z,99934.06
2022-10-02T06:29:59.995Z,99932.38
2022-10-02T06:30:31.964Z,99931.38
2022-10-02T06:31:05.093Z,99937.69
2022-10-02T06:31:51.442Z,99931.38
2022-10-02T06:32:25.929Z,99937.97
2022-10-02T06:33:01.493Z,99933.50
2022-10-02T06:33:32.941Z,99929.97
2022-10-02T06:34:04.312Z,99932.66
2022-10-02T06:34:35.683Z,99935.47
2022-10-02T06:35:11.016Z,99931.13
2022-10-02T06:35:54.286Z,99936.03
2022-10-02T06:36:44.471Z,99937.69
2022-10-02T06:37:22.015Z,99934.34
2022-10-02T06:37:56.038Z,99930.69
2022-10-02T06:38:30.109Z,99929.84
2022-10-02T06:39:20.382Z,99931.53
2022-10-02T06:40:01.605Z,99936.03
2022-10-02T06:40:51.543Z,99932.38
2022-10-02T06:41:22.939Z,99939.69
2022-10-02T06:42:00.448Z,99943.03
2022-10-02T06:42:38.983Z,99944.72
2022-10-02T06:43:19.302Z,99947.25
2022-10-02T06:43:53.408Z,99948.38
2022-10-02T06:44:30.733Z,99947.25
2022-10-02T06:45:09.218Z,99941.22
2022-10-02T06:45:46.563Z,99946.56
2022-10-02T06:46:17.931Z,99946.44
2022-10-02T06:46:51.417Z,99948.38
2022-10-02T06:47:41.730Z,99947.97
2022-10-02T06:48:23.225Z,99947.69
2022-10-02T06:48:56.464Z,99947.00
2022-10-02T06:49:36.985Z,99950.50
2022-10-02T06:50:17.265Z,99950.34
2022-10-02T06:50:54.119Z,99953.03
2022-10-02T06:51:33.748Z,99952.75
2022-10-02T06:52:14.339Z,99956.53
2022-10-02T06:52:57.567Z,99966.09
2022-10-02T06:53:28.933Z,99949.66
2022-10-02T06:54:09.466Z,99969.03
2022-10-02T06:54:50.250Z,99961.31
2022-10-02T06:55:31.944Z,99964.66
2022-10-02T06:56:22.112Z,99965.69
2022-10-02T06:57:02.586Z,99970.16
2022-10-02T06:57:52.585Z,99973.69
2022-10-02T06:58:42.806Z,99978.72
2022-10-02T06:59:18.339Z,99975.34
2022-10-02T07:00:03.223Z,99968.06
2022-10-02T07:00:36.704Z,99967.06
2022-10-02T07:01:08.134Z,99967.34
2022-10-02T07:01:59.620Z,99964.66
2022-10-02T07:02:57.067Z,99953.44
2022-10-02T07:03:31.236Z,99962.16
2022-10-02T07:04:02.649Z,99949.81
2022-10-02T07:04:40.260Z,99953.16
2022-10-02T07:05:30.365Z,99955.69
2022-10-02T07:06:01.739Z,99957.53
2022-10-02T07:06:41.557Z,99951.19
2022-10-02T07:07:26.379Z,99953.03
2022-10-02T07:08:13.138Z,99958.75
2022-10-02T07:09:03.094Z,99954.44
2022-10-02T07:09:53.510Z,99954.00
2022-10-02T07:10:42.396Z,99955.69
2022-10-02T07:11:16.569Z,99959.34
2022-10-02T07:11:50.605Z,99967.06
2022-10-02T07:12:44.362Z,99965.25
2022-10-02T07:13:15.794Z,99971.41
2022-10-02T07:13:47.148Z,99959.34
2022-10-02T07:14:28.902Z,99969.47
2022-10-02T07:15:03.273Z,99966.38
2022-10-02T07:15:50.946Z,99975.19
2022-10-02T07:16:26.758Z,99963.56
2022-10-02T07:17:04.338Z,99970.72